createdAt,value
2022-11-17T00:00:07.737Z,13.78
2022-11-17T00:01:09.688Z,12.70
2022-11-17T00:02:11.590Z,13.83
2022-11-17T00:03:13.334Z,15.74
2022-11-17T00:04:15.155Z,13.57
2022-11-17T00:05:16.950Z,13.49
2022-11-17T00:06:18.754Z,12.84
2022-11-17T00:07:20.686Z,15.05
2022-11-17T00:08:22.549Z,15.53
2022-11-17T00:09:24.334Z,15.07
2022-11-17T00:10:26.147Z,13.74
2022-11-17T00:11:27.961Z,14.56
2022-11-17T00:12:32.821Z,13.50
2022-11-17T00:13:33.789Z,17.15
2022-11-17T00:14:35.666Z,21.08
2022-11-17T00:15:37.488Z,18.95
2022-11-17T00:16:39.372Z,17.04
2022-11-17T00:17:41.206Z,19.67
2022-11-17T00:18:43.008Z,16.20
2022-11-17T00:19:44.825Z,17.31
2022-11-17T00:20:46.631Z,14.02
2022-11-17T00:21:48.451Z,15.38
2022-11-17T00:22:50.299Z,11.92
2022-11-17T00:23:52.091Z,12.03
2022-11-17T00:24:53.885Z,9.26
2022-11-17T00:25:55.702Z,12.65
2022-11-17T00:26:57.516Z,11.06
2022-11-17T00:27:59.351Z,11.24
2022-11-17T00:29:01.170Z,13.08
2022-11-17T00:30:21.088Z,10.83
2022-11-17T00:31:22.901Z,14.39
2022-11-17T00:32:24.825Z,12.57
2022-11-17T00:33:26.682Z,11.81
2022-11-17T00:34:28.483Z,11.55
2022-11-17T00:35:30.288Z,11.42
2022-11-17T00:36:32.097Z,11.55
2022-11-17T00:37:33.902Z,11.36
2022-11-17T00:38:35.763Z,10.43
2022-11-17T00:39:37.576Z,10.27
2022-11-17T00:40:39.367Z,9.14
2022-11-17T00:41:41.173Z,10.08
2022-11-17T00:42:42.995Z,11.73
2022-11-17T00:43:44.843Z,10.18
2022-11-17T00:44:46.650Z,11.19
2022-11-17T00:45:48.495Z,9.57
2022-11-17T00:46:50.326Z,9.96
2022-11-17T00:47:52.216Z,10.60
2022-11-17T00:48:54.083Z,10.94
2022-11-17T00:49:55.886Z,9.60
2022-11-17T00:50:57.694Z,10.31
2022-11-17T00:51:59.520Z,11.81
2022-11-17T00:53:01.326Z,11.37
2022-11-17T00:54:03.170Z,10.05
2022-11-17T00:55:04.981Z,10.73
2022-11-17T00:56:06.861Z,11.11
2022-11-17T00:57:08.692Z,10.81
2022-11-17T00:58:10.521Z,10.34
2022-11-17T00:59:12.356Z,10.84
2022-11-17T01:00:14.157Z,11.09
2022-11-17T01:01:16.029Z,10.77
2022-11-17T01:02:17.786Z,10.35
2022-11-17T01:03:19.802Z,8.91
2022-11-17T01:04:21.660Z,9.69
2022-11-17T01:05:23.480Z,10.33
2022-11-17T01:06:25.388Z,9.66
2022-11-17T01:07:27.265Z,8.52
2022-11-17T01:08:29.121Z,11.01
2022-11-17T01:09:30.967Z,10.59
2022-11-17T01:10:32.797Z,10.22
2022-11-17T01:11:34.597Z,12.16
2022-11-17T01:12:36.432Z,9.55
2022-11-17T01:13:38.298Z,8.92
2022-11-17T01:14:40.103Z,9.81
2022-11-17T01:15:41.910Z,10.39
2022-11-17T01:16:43.712Z,10.30
2022-11-17T01:17:45.526Z,8.74
2022-11-17T01:18:47.413Z,9.74
2022-11-17T01:19:49.262Z,11.06
2022-11-17T01:20:51.059Z,10.81
2022-11-17T01:21:52.842Z,9.72
2022-11-17T01:22:54.643Z,10.53
2022-11-17T01:23:56.476Z,9.70
2022-11-17T01:24:58.330Z,9.30
2022-11-17T01:26:00.120Z,11.49
2022-11-17T01:27:01.931Z,10.67
2022-11-17T01:28:03.723Z,11.51
2022-11-17T01:29:05.523Z,12.97
2022-11-17T01:30:08.304Z,11.51
2022-11-17T01:31:10.098Z,12.67
2022-11-17T01:32:11.894Z,13.50
2022-11-17T01:33:13.683Z,14.46
2022-11-17T01:34:15.574Z,15.31
2022-11-17T01:35:17.393Z,16.74
2022-11-17T01:36:19.209Z,17.55
2022-11-17T01:37:21.015Z,15.37
2022-11-17T01:38:22.810Z,14.80
2022-11-17T01:39:24.604Z,14.86
2022-11-17T01:40:26.443Z,16.15
2022-11-17T01:41:28.241Z,18.75
2022-11-17T01:42:30.026Z,16.33
2022-11-17T01:43:31.941Z,18.15
2022-11-17T01:44:33.731Z,17.60
2022-11-17T01:45:35.561Z,17.44
2022-11-17T01:46:37.389Z,18.39
2022-11-17T01:47:39.198Z,19.49
2022-11-17T01:48:41.001Z,16.45
2022-11-17T01:49:42.825Z,17.30
2022-11-17T01:50:44.683Z,15.09
2022-11-17T01:51:46.481Z,16.11
2022-11-17T01:52:48.270Z,16.81
2022-11-17T01:53:50.093Z,16.61
2022-11-17T01:54:51.920Z,17.26
2022-11-17T01:55:53.759Z,14.89
2022-11-17T01:56:55.549Z,16.77
2022-11-17T01:57:57.326Z,15.78
2022-11-17T01:58:59.150Z,17.91
2022-11-17T02:00:00.945Z,14.94
2022-11-17T02:01:02.785Z,14.62
2022-11-17T02:02:04.673Z,16.91
2022-11-17T02:03:06.599Z,14.17
2022-11-17T02:04:08.419Z,17.20
2022-11-17T02:05:10.437Z,16.19
2022-11-17T02:06:12.495Z,16.67
2022-11-17T02:07:14.385Z,15.95
2022-11-17T02:08:16.237Z,18.28
2022-11-17T02:09:18.022Z,16.87
2022-11-17T02:10:19.730Z,17.84
2022-11-17T02:11:21.637Z,17.46
2022-11-17T02:12:23.444Z,16.09
2022-11-17T02:13:25.266Z,17.40
2022-11-17T02:14:27.073Z,16.39
2022-11-17T02:15:28.899Z,18.73
2022-11-17T02:16:30.767Z,17.05
2022-11-17T02:17:32.569Z,18.27
2022-11-17T02:18:34.380Z,15.18
2022-11-17T02:19:36.212Z,23.35
2022-11-17T02:20:38.139Z,17.01
2022-11-17T02:21:39.981Z,18.81
2022-11-17T02:22:41.793Z,16.35
2022-11-17T02:23:43.586Z,18.28
2022-11-17T02:24:45.399Z,17.64
2022-11-17T02:25:47.183Z,17.29
2022-11-17T02:26:49.027Z,17.93
2022-11-17T02:27:50.822Z,18.43
2022-11-17T02:28:52.655Z,18.27
2022-11-17T02:29:54.477Z,19.84
2022-11-17T02:30:56.285Z,19.20
2022-11-17T02:31:58.142Z,19.38
2022-11-17T02:32:59.947Z,18.18
2022-11-17T02:34:01.776Z,17.49
2022-11-17T02:35:03.597Z,19.68
2022-11-17T02:36:05.583Z,20.61
2022-11-17T02:37:07.421Z,18.85
2022-11-17T02:38:09.224Z,18.75
2022-11-17T02:39:11.016Z,20.46
2022-11-17T02:40:12.833Z,20.85
2022-11-17T02:41:14.649Z,19.51
2022-11-17T02:42:16.526Z,22.33
2022-11-17T02:43:18.352Z,19.49
2022-11-17T02:44:20.153Z,20.91
2022-11-17T02:45:21.934Z,22.15
2022-11-17T02:46:23.849Z,19.55
2022-11-17T02:47:25.704Z,18.41
2022-11-17T02:48:27.503Z,21.97
2022-11-17T02:49:29.316Z,19.43
2022-11-17T02:50:31.115Z,23.00
2022-11-17T02:51:32.988Z,24.05
2022-11-17T02:52:34.830Z,21.40
2022-11-17T02:53:36.993Z,20.52
2022-11-17T02:54:38.967Z,21.83
2022-11-17T02:55:40.778Z,20.64
2022-11-17T02:56:42.591Z,32.26
2022-11-17T02:57:44.441Z,26.67
2022-11-17T02:58:46.230Z,26.06
2022-11-17T02:59:48.019Z,24.46
2022-11-17T03:00:49.940Z,24.66
2022-11-17T03:01:51.821Z,24.35
2022-11-17T03:02:53.720Z,23.78
2022-11-17T03:03:55.529Z,26.83
2022-11-17T03:04:57.349Z,22.92
2022-11-17T03:05:59.166Z,24.62
2022-11-17T03:07:01.302Z,21.43
2022-11-17T03:08:03.202Z,19.85
2022-11-17T03:09:05.011Z,22.95
2022-11-17T03:10:07.202Z,21.84
2022-11-17T03:11:09.014Z,23.10
2022-11-17T03:12:10.826Z,23.29
2022-11-17T03:13:12.676Z,19.95
2022-11-17T03:14:14.509Z,24.15
2022-11-17T03:15:16.327Z,20.07
2022-11-17T03:16:18.144Z,21.28
2022-11-17T03:17:19.982Z,22.42
2022-11-17T03:18:22.152Z,22.20
2022-11-17T03:19:23.933Z,24.65
2022-11-17T03:20:25.741Z,27.21
2022-11-17T03:21:27.558Z,21.92
2022-11-17T03:22:29.481Z,22.99
2022-11-17T03:23:31.335Z,22.96
2022-11-17T03:24:33.156Z,24.71
2022-11-17T03:25:34.972Z,22.71
2022-11-17T03:26:36.798Z,23.14
2022-11-17T03:27:38.602Z,20.75
2022-11-17T03:28:40.467Z,26.07
2022-11-17T03:29:42.313Z,23.99
2022-11-17T03:30:44.109Z,23.79
2022-11-17T03:31:45.931Z,24.38
2022-11-17T03:32:47.739Z,25.14
2022-11-17T03:33:49.603Z,22.43
2022-11-17T03:34:51.424Z,23.88
2022-11-17T03:35:53.244Z,27.04
2022-11-17T03:36:55.044Z,22.71
2022-11-17T03:37:56.862Z,23.33
2022-11-17T03:38:58.741Z,25.47
2022-11-17T03:40:00.568Z,24.13
2022-11-17T03:41:02.354Z,26.31
2022-11-17T03:42:04.163Z,24.45
2022-11-17T03:43:05.989Z,23.67
2022-11-17T03:44:07.839Z,28.52
2022-11-17T03:45:09.649Z,27.22
2022-11-17T03:46:11.880Z,22.73
2022-11-17T03:47:13.694Z,24.61
2022-11-17T03:48:15.541Z,28.81
2022-11-17T03:49:17.351Z,28.02
2022-11-17T03:50:19.149Z,28.09
2022-11-17T03:51:20.951Z,26.46
2022-11-17T03:52:22.881Z,25.33
2022-11-17T03:53:24.762Z,25.02
2022-11-17T03:54:26.624Z,27.40
2022-11-17T03:55:28.444Z,24.83
2022-11-17T03:56:30.251Z,26.82
2022-11-17T03:57:32.111Z,29.51
2022-11-17T03:58:33.943Z,29.52
2022-11-17T03:59:35.830Z,31.65
2022-11-17T04:00:37.640Z,29.70
2022-11-17T04:01:39.458Z,26.93
2022-11-17T04:02:41.256Z,29.21
2022-11-17T04:03:43.063Z,27.27
2022-11-17T04:04:44.917Z,29.11
2022-11-17T04:05:46.741Z,31.08
2022-11-17T04:06:48.541Z,29.30
2022-11-17T04:07:50.354Z,28.46
2022-11-17T04:08:52.201Z,30.61
2022-11-17T04:09:54.060Z,29.00
2022-11-17T04:10:55.889Z,31.62
2022-11-17T04:11:57.681Z,29.88
2022-11-17T04:12:59.488Z,29.67
2022-11-17T04:14:01.309Z,29.14
2022-11-17T04:15:03.260Z,28.52
2022-11-17T04:16:05.278Z,30.85
2022-11-17T04:17:07.120Z,32.23
2022-11-17T04:18:08.941Z,29.91
2022-11-17T04:19:10.731Z,29.93
2022-11-17T04:20:12.696Z,28.21
2022-11-17T04:21:14.493Z,30.03
2022-11-17T04:22:16.292Z,30.50
2022-11-17T04:23:18.108Z,32.16
2022-11-17T04:24:19.969Z,27.72
2022-11-17T04:25:21.797Z,30.93
2022-11-17T04:26:23.710Z,32.59
2022-11-17T04:27:25.530Z,38.81
2022-11-17T04:28:27.632Z,35.26
2022-11-17T04:29:29.476Z,40.08
2022-11-17T04:30:31.338Z,42.19
2022-11-17T04:31:33.138Z,43.30
2022-11-17T04:32:34.942Z,44.23
2022-11-17T04:33:37.032Z,48.25
2022-11-17T04:34:39.104Z,53.30
2022-11-17T04:35:40.946Z,50.65
2022-11-17T04:36:42.751Z,52.36
2022-11-17T04:37:44.588Z,51.16
2022-11-17T04:38:46.400Z,50.26
2022-11-17T04:39:48.278Z,59.79
2022-11-17T04:40:50.143Z,56.37
2022-11-17T04:41:51.990Z,61.67
2022-11-17T04:42:53.781Z,55.49
2022-11-17T04:43:55.593Z,58.31
2022-11-17T04:44:57.401Z,57.09
2022-11-17T04:45:59.263Z,54.20
2022-11-17T04:47:01.118Z,55.60
2022-11-17T04:48:02.923Z,57.59
2022-11-17T04:49:04.731Z,54.54
2022-11-17T04:50:07.150Z,58.40
2022-11-17T04:51:09.013Z,58.39
2022-11-17T04:52:10.842Z,54.56
2022-11-17T04:53:12.656Z,52.74
2022-11-17T04:54:14.455Z,53.80
2022-11-17T04:55:16.459Z,53.27
2022-11-17T04:56:18.309Z,56.85
2022-11-17T04:57:20.141Z,59.39
2022-11-17T04:58:21.970Z,59.76
2022-11-17T04:59:23.783Z,57.68
2022-11-17T05:00:25.596Z,58.68
2022-11-17T05:01:27.444Z,64.86
2022-11-17T05:02:29.307Z,57.32
2022-11-17T05:03:31.065Z,62.11
2022-11-17T05:04:32.906Z,59.75
2022-11-17T05:05:34.730Z,62.19
2022-11-17T05:06:36.581Z,64.95
2022-11-17T05:07:38.505Z,61.47
2022-11-17T05:08:40.302Z,64.19
2022-11-17T05:09:42.129Z,56.30
2022-11-17T05:10:44.127Z,56.48
2022-11-17T05:11:45.999Z,63.25
2022-11-17T05:12:47.825Z,59.56
2022-11-17T05:13:49.640Z,56.49
2022-11-17T05:14:51.446Z,59.19
2022-11-17T05:15:53.251Z,55.23
2022-11-17T05:16:55.117Z,54.80
2022-11-17T05:17:56.921Z,54.79
2022-11-17T05:18:58.761Z,52.24
2022-11-17T05:20:00.596Z,55.36
2022-11-17T05:21:02.384Z,53.81
2022-11-17T05:22:04.248Z,51.83
2022-11-17T05:23:07.096Z,52.31
2022-11-17T05:24:08.991Z,50.19
2022-11-17T05:25:10.793Z,50.24
2022-11-17T05:26:12.982Z,50.79
2022-11-17T05:27:14.842Z,50.18
2022-11-17T05:28:17.237Z,49.56
2022-11-17T05:29:19.067Z,52.53
2022-11-17T05:30:20.862Z,52.67
2022-11-17T05:31:22.757Z,48.31
2022-11-17T05:32:24.643Z,51.21
2022-11-17T05:33:26.578Z,52.99
2022-11-17T05:34:28.375Z,48.59
2022-11-17T05:35:30.176Z,52.99
2022-11-17T05:36:31.999Z,48.71
2022-11-17T05:37:33.858Z,50.59
2022-11-17T05:38:35.651Z,51.36
2022-11-17T05:39:38.577Z,51.95
2022-11-17T05:40:40.397Z,48.80
2022-11-17T05:41:42.302Z,46.71
2022-11-17T05:42:44.192Z,47.74
2022-11-17T05:43:46.017Z,49.03
2022-11-17T05:44:47.853Z,47.31
2022-11-17T05:45:49.694Z,45.67
2022-11-17T05:46:51.510Z,46.09
2022-11-17T05:47:53.327Z,47.25
2022-11-17T05:48:55.118Z,46.18
2022-11-17T05:49:56.948Z,44.11
2022-11-17T05:50:58.756Z,41.91
2022-11-17T05:52:00.568Z,44.29
2022-11-17T05:53:02.424Z,45.57
2022-11-17T05:54:04.205Z,45.09
2022-11-17T05:55:06.038Z,45.39
2022-11-17T05:56:08.167Z,43.44
2022-11-17T05:57:10.055Z,45.75
2022-11-17T05:58:11.928Z,44.09
2022-11-17T05:59:13.761Z,45.87
2022-11-17T06:00:15.545Z,45.49
2022-11-17T06:01:17.395Z,44.88
2022-11-17T06:02:21.671Z,43.45
2022-11-17T06:03:23.607Z,45.57
2022-11-17T06:04:25.470Z,44.27
2022-11-17T06:05:27.290Z,42.69
2022-11-17T06:06:29.116Z,44.49
2022-11-17T06:07:30.978Z,41.94
2022-11-17T06:08:32.900Z,41.96
2022-11-17T06:09:34.734Z,43.97
2022-11-17T06:10:36.547Z,41.46
2022-11-17T06:11:38.352Z,43.23
2022-11-17T06:12:40.228Z,42.01
2022-11-17T06:13:42.080Z,39.17
2022-11-17T06:14:43.884Z,37.63
2022-11-17T06:15:45.726Z,38.10
2022-11-17T06:16:47.648Z,41.45
2022-11-17T06:17:49.488Z,37.84
2022-11-17T06:18:51.362Z,36.37
2022-11-17T06:19:53.156Z,34.92
2022-11-17T06:20:55.078Z,35.95
2022-11-17T06:22:11.660Z,38.10
2022-11-17T06:23:00.511Z,38.38
2022-11-17T06:24:02.391Z,37.64
2022-11-17T06:25:04.184Z,36.55
2022-11-17T06:26:06.287Z,34.67
2022-11-17T06:27:08.108Z,35.02
2022-11-17T06:28:09.960Z,37.86
2022-11-17T06:29:11.834Z,35.90
2022-11-17T06:30:13.972Z,33.63
2022-11-17T06:31:15.802Z,34.69
2022-11-17T06:32:17.583Z,32.92
2022-11-17T06:33:19.318Z,33.71
2022-11-17T06:34:21.160Z,37.51
2022-11-17T06:35:22.961Z,33.98
2022-11-17T06:36:24.789Z,33.38
2022-11-17T06:37:26.612Z,33.06
2022-11-17T06:38:28.446Z,33.91
2022-11-17T06:39:30.324Z,32.05
2022-11-17T06:40:32.239Z,35.91
2022-11-17T06:41:34.061Z,33.75
2022-11-17T06:42:35.882Z,35.47
2022-11-17T06:43:38.185Z,32.02
2022-11-17T06:44:40.098Z,33.25
2022-11-17T06:45:41.921Z,32.31
2022-11-17T06:46:48.797Z,32.79
2022-11-17T06:47:47.442Z,34.00
2022-11-17T06:48:49.242Z,33.91
2022-11-17T06:49:51.128Z,33.11
2022-11-17T06:50:52.922Z,34.17
2022-11-17T06:51:54.724Z,33.89
2022-11-17T06:52:56.557Z,31.02
2022-11-17T06:53:58.413Z,34.61
2022-11-17T06:55:00.290Z,31.89
2022-11-17T06:56:02.082Z,33.94
2022-11-17T06:57:03.896Z,32.25
2022-11-17T06:58:05.730Z,34.47
2022-11-17T06:59:07.664Z,30.26
2022-11-17T07:00:09.816Z,31.55
2022-11-17T07:01:11.658Z,32.95
2022-11-17T07:02:13.537Z,33.93
2022-11-17T07:03:15.344Z,33.64
2022-11-17T07:04:17.125Z,32.87
2022-11-17T07:05:19.022Z,35.56
2022-11-17T07:06:20.843Z,36.44
2022-11-17T07:07:22.703Z,35.55
2022-11-17T07:08:24.467Z,32.67
2022-11-17T07:09:26.273Z,31.19
2022-11-17T07:10:28.142Z,35.30
2022-11-17T07:11:29.961Z,27.82
2022-11-17T07:12:31.765Z,28.79
2022-11-17T07:13:33.573Z,29.58
2022-11-17T07:14:35.514Z,31.11
2022-11-17T07:15:37.350Z,27.68
2022-11-17T07:16:39.137Z,28.69
2022-11-17T07:17:40.959Z,30.69
2022-11-17T07:18:42.884Z,27.94
2022-11-17T07:19:44.716Z,31.84
2022-11-17T07:20:46.685Z,31.67
2022-11-17T07:21:48.472Z,29.67
2022-11-17T07:22:50.347Z,31.53
2022-11-17T07:23:52.118Z,30.62
2022-11-17T07:24:53.897Z,30.39
2022-11-17T07:25:55.767Z,28.67
2022-11-17T07:26:57.681Z,29.98
2022-11-17T07:27:59.547Z,30.21
2022-11-17T07:29:01.371Z,30.19
2022-11-17T07:30:03.239Z,28.29
2022-11-17T07:31:05.092Z,29.23
2022-11-17T07:32:06.918Z,29.40
2022-11-17T07:33:08.728Z,28.16
2022-11-17T07:34:10.522Z,29.43
2022-11-17T07:35:12.312Z,30.42
2022-11-17T07:36:14.162Z,29.74
2022-11-17T07:37:15.999Z,29.36
2022-11-17T07:38:17.818Z,27.46
2022-11-17T07:39:21.661Z,27.95
2022-11-17T07:40:23.291Z,29.58
2022-11-17T07:41:25.156Z,28.49
2022-11-17T07:42:26.967Z,27.99
2022-11-17T07:43:28.842Z,27.43
2022-11-17T07:44:30.721Z,27.41
2022-11-17T07:45:32.622Z,29.46
2022-11-17T07:46:34.490Z,27.40
2022-11-17T07:47:36.269Z,25.63
2022-11-17T07:48:38.460Z,26.49
2022-11-17T07:49:40.501Z,25.51
2022-11-17T07:50:42.438Z,25.57
2022-11-17T07:51:44.303Z,25.64
2022-11-17T07:52:46.118Z,24.67
2022-11-17T07:53:47.938Z,28.07
2022-11-17T07:54:49.748Z,27.45
2022-11-17T07:55:51.550Z,28.22
2022-11-17T07:56:53.479Z,27.60
2022-11-17T07:57:55.163Z,23.70
2022-11-17T07:58:56.975Z,28.55
2022-11-17T07:59:58.773Z,26.93
2022-11-17T08:01:00.723Z,25.33
2022-11-17T08:02:02.566Z,25.45
2022-11-17T08:03:04.363Z,26.56
2022-11-17T08:04:06.195Z,28.23
2022-11-17T08:05:07.973Z,26.12
2022-11-17T08:06:09.858Z,27.16
2022-11-17T08:07:11.749Z,29.31
2022-11-17T08:08:13.613Z,25.53
2022-11-17T08:09:15.491Z,23.94
2022-11-17T08:10:17.301Z,25.29
2022-11-17T08:11:19.078Z,24.04
2022-11-17T08:12:20.913Z,29.87
2022-11-17T08:13:22.720Z,25.43
2022-11-17T08:14:24.415Z,24.62
2022-11-17T08:15:26.213Z,23.36
2022-11-17T08:16:27.981Z,23.98
2022-11-17T08:17:29.764Z,23.93
2022-11-17T08:18:31.571Z,21.81
2022-11-17T08:19:33.370Z,22.69
2022-11-17T08:20:35.173Z,20.61
2022-11-17T08:21:36.944Z,20.96
2022-11-17T08:22:38.754Z,21.63
2022-11-17T08:23:40.441Z,23.55
2022-11-17T08:24:42.376Z,22.01
2022-11-17T08:25:44.252Z,19.77
2022-11-17T08:26:46.030Z,20.14
2022-11-17T08:27:47.877Z,20.17
2022-11-17T08:28:53.655Z,22.02
2022-11-17T08:29:53.304Z,18.92
2022-11-17T08:30:55.189Z,19.66
2022-11-17T08:31:57.106Z,21.02
2022-11-17T08:32:58.897Z,18.66
2022-11-17T08:34:00.685Z,18.96
2022-11-17T08:35:02.395Z,18.24
2022-11-17T08:36:04.289Z,19.19
2022-11-17T08:37:06.054Z,18.38
2022-11-17T08:38:07.790Z,19.61
2022-11-17T08:39:09.502Z,21.11
2022-11-17T08:40:11.389Z,19.54
2022-11-17T08:41:13.170Z,20.88
2022-11-17T08:42:14.969Z,19.78
2022-11-17T08:43:16.793Z,21.01
2022-11-17T08:44:18.479Z,19.96
2022-11-17T08:45:20.265Z,20.17
2022-11-17T08:46:22.063Z,21.05
2022-11-17T08:47:23.757Z,20.23
2022-11-17T08:48:25.908Z,18.39
2022-11-17T08:49:27.701Z,20.91
2022-11-17T08:50:29.494Z,18.89
2022-11-17T08:51:31.279Z,20.25
2022-11-17T08:52:32.962Z,18.92
2022-11-17T08:53:34.674Z,19.28
2022-11-17T08:54:36.461Z,17.19
2022-11-17T08:55:41.156Z,18.00
2022-11-17T08:56:42.025Z,19.26
2022-11-17T08:57:43.772Z,20.28
2022-11-17T08:58:45.651Z,20.13
2022-11-17T08:59:47.336Z,19.24
2022-11-17T09:00:49.054Z,20.59
2022-11-17T09:01:50.816Z,17.61
2022-11-17T09:02:52.541Z,18.91
2022-11-17T09:03:54.355Z,19.21
2022-11-17T09:04:56.035Z,18.89
2022-11-17T09:05:57.823Z,18.85
2022-11-17T09:06:59.558Z,19.48
2022-11-17T09:08:22.326Z,18.56
2022-11-17T09:09:05.415Z,18.34
2022-11-17T09:10:07.515Z,21.77
2022-11-17T09:11:09.205Z,21.05
2022-11-17T09:12:11.028Z,20.05
2022-11-17T09:13:17.515Z,21.04
2022-11-17T09:14:16.448Z,20.86
2022-11-17T09:15:18.333Z,21.76
2022-11-17T09:16:20.129Z,20.24
2022-11-17T09:17:21.952Z,20.77
2022-11-17T09:18:23.880Z,22.96
2022-11-17T09:19:25.596Z,24.14
2022-11-17T09:20:27.281Z,21.49
2022-11-17T09:21:28.987Z,24.18
2022-11-17T09:22:30.763Z,24.97
2022-11-17T09:23:32.584Z,24.62
2022-11-17T09:24:34.584Z,25.07
2022-11-17T09:25:36.370Z,23.85
2022-11-17T09:26:38.151Z,22.27
2022-11-17T09:27:40.050Z,20.35
2022-11-17T09:28:41.734Z,21.11
2022-11-17T09:29:43.550Z,22.36
2022-11-17T09:30:45.342Z,21.77
2022-11-17T09:31:47.138Z,18.76
2022-11-17T09:32:48.949Z,19.56
2022-11-17T09:33:50.863Z,27.84
2022-11-17T09:34:52.962Z,28.68
2022-11-17T09:35:54.737Z,31.32
2022-11-17T09:36:56.532Z,35.25
2022-11-17T09:37:58.314Z,29.38
2022-11-17T09:38:59.988Z,29.09
2022-11-17T09:40:01.805Z,24.51
2022-11-17T09:41:03.605Z,21.97
2022-11-17T09:42:05.297Z,20.94
2022-11-17T09:43:06.992Z,21.66
2022-11-17T09:44:08.675Z,21.73
2022-11-17T09:45:10.483Z,22.06
2022-11-17T09:46:12.274Z,22.17
2022-11-17T09:47:14.069Z,23.43
2022-11-17T09:49:19.526Z,22.98
2022-11-17T09:50:21.259Z,19.66
2022-11-17T09:51:22.947Z,22.20
2022-11-17T09:52:24.749Z,21.93
2022-11-17T09:53:26.647Z,24.75
2022-11-17T09:54:28.338Z,19.87
2022-11-17T09:55:34.177Z,20.27
2022-11-17T09:56:33.868Z,22.49
2022-11-17T09:57:35.655Z,22.60
2022-11-17T09:58:37.823Z,25.28
2022-11-17T09:59:40.033Z,20.46
2022-11-17T10:00:41.956Z,21.85
2022-11-17T10:01:43.665Z,22.84
2022-11-17T10:02:45.426Z,25.92
2022-11-17T10:03:47.514Z,23.42
2022-11-17T10:04:49.610Z,23.58
2022-11-17T10:05:51.416Z,23.76
2022-11-17T10:06:53.364Z,23.49
2022-11-17T10:07:55.235Z,23.65
2022-11-17T10:08:57.032Z,24.33
2022-11-17T10:09:58.845Z,25.59
2022-11-17T10:11:00.700Z,22.88
2022-11-17T10:12:02.506Z,22.27
2022-11-17T10:13:04.324Z,26.99
2022-11-17T10:14:06.089Z,22.99
2022-11-17T10:15:07.860Z,23.63
2022-11-17T10:16:09.802Z,22.01
2022-11-17T10:17:11.580Z,20.47
2022-11-17T10:18:13.420Z,20.19
2022-11-17T10:19:15.217Z,21.89
2022-11-17T10:20:17.179Z,28.95
2022-11-17T10:21:19.060Z,29.11
2022-11-17T10:22:21.127Z,25.67
2022-11-17T10:23:22.970Z,26.98
2022-11-17T10:24:24.715Z,24.65
2022-11-17T10:25:26.595Z,27.02
2022-11-17T10:26:28.408Z,24.46
2022-11-17T10:27:30.226Z,27.21
2022-11-17T10:28:32.019Z,27.85
2022-11-17T10:29:33.870Z,27.85
2022-11-17T10:30:35.799Z,27.68
2022-11-17T10:31:37.657Z,26.26
2022-11-17T10:32:43.970Z,25.59
2022-11-17T10:33:43.086Z,25.00
2022-11-17T10:34:44.914Z,25.54
2022-11-17T10:35:46.748Z,26.58
2022-11-17T10:36:48.558Z,25.14
2022-11-17T10:37:50.344Z,24.85
2022-11-17T10:38:52.132Z,24.40
2022-11-17T10:39:53.961Z,27.04
2022-11-17T10:40:55.998Z,23.67
2022-11-17T10:41:57.871Z,24.68
2022-11-17T10:42:59.664Z,24.19
2022-11-17T10:44:01.474Z,26.29
2022-11-17T10:45:03.238Z,24.56
2022-11-17T10:46:05.157Z,25.89
2022-11-17T10:47:07.253Z,24.47
2022-11-17T10:48:09.111Z,25.79
2022-11-17T10:49:11.979Z,24.00
2022-11-17T10:50:13.905Z,25.35
2022-11-17T10:51:15.829Z,27.10
2022-11-17T10:52:17.581Z,23.24
2022-11-17T10:53:19.390Z,26.08
2022-11-17T10:54:21.215Z,26.31
2022-11-17T10:55:23.040Z,25.15
2022-11-17T10:56:24.845Z,25.46
2022-11-17T10:57:26.736Z,27.37
2022-11-17T10:58:28.462Z,23.31
2022-11-17T10:59:30.259Z,24.25
2022-11-17T11:00:32.090Z,27.62
2022-11-17T11:01:34.052Z,25.39
2022-11-17T11:02:35.859Z,25.05
2022-11-17T11:03:38.016Z,25.59
2022-11-17T11:04:40.010Z,28.66
2022-11-17T11:05:41.811Z,28.59
2022-11-17T11:06:43.669Z,32.61
2022-11-17T11:07:45.515Z,34.04
2022-11-17T11:08:47.308Z,32.31
2022-11-17T11:09:49.116Z,31.97
2022-11-17T11:10:50.907Z,28.45
2022-11-17T11:11:52.726Z,26.87
2022-11-17T11:12:54.562Z,27.97
2022-11-17T11:13:56.280Z,31.27
2022-11-17T11:14:58.087Z,34.88
2022-11-17T11:15:59.868Z,37.89
2022-11-17T11:17:01.711Z,35.49
2022-11-17T11:18:03.538Z,33.43
2022-11-17T11:19:05.351Z,31.37
2022-11-17T11:20:07.233Z,32.87
2022-11-17T11:21:09.044Z,32.34
2022-11-17T11:22:10.927Z,34.43
2022-11-17T11:23:12.802Z,33.86
2022-11-17T11:24:14.614Z,35.01
2022-11-17T11:25:16.430Z,32.13
2022-11-17T11:26:18.229Z,30.91
2022-11-17T11:27:19.934Z,35.31
2022-11-17T11:28:21.657Z,33.19
2022-11-17T11:29:23.467Z,32.71
2022-11-17T11:30:25.281Z,34.92
2022-11-17T11:31:27.090Z,35.29
2022-11-17T11:32:28.908Z,36.25
2022-11-17T11:33:30.744Z,35.84
2022-11-17T11:34:32.535Z,35.61
2022-11-17T11:35:34.329Z,35.48
2022-11-17T11:36:36.252Z,31.09
2022-11-17T11:37:38.094Z,35.15
2022-11-17T11:38:39.918Z,36.72
2022-11-17T11:39:41.618Z,40.77
2022-11-17T11:40:43.422Z,35.19
2022-11-17T11:41:45.276Z,36.49
2022-11-17T11:42:47.092Z,35.54
2022-11-17T11:43:49.103Z,35.41
2022-11-17T11:44:50.926Z,35.09
2022-11-17T11:45:52.731Z,32.78
2022-11-17T11:46:54.671Z,28.27
2022-11-17T11:47:56.460Z,29.09
2022-11-17T11:48:58.307Z,29.99
2022-11-17T11:50:00.118Z,27.72
2022-11-17T11:51:01.956Z,30.15
2022-11-17T11:52:03.750Z,30.26
2022-11-17T11:53:05.666Z,32.89
2022-11-17T11:54:07.524Z,31.79
2022-11-17T11:55:09.324Z,30.14
2022-11-17T11:56:11.136Z,30.82
2022-11-17T11:57:12.938Z,30.93
2022-11-17T11:58:14.735Z,37.95
2022-11-17T11:59:16.586Z,56.79
2022-11-17T12:00:18.400Z,62.49
2022-11-17T12:01:20.212Z,56.97
2022-11-17T12:02:22.104Z,64.00
2022-11-17T12:03:24.045Z,71.49
2022-11-17T12:04:25.961Z,70.70
2022-11-17T12:05:27.776Z,65.43
2022-11-17T12:06:29.588Z,62.81
2022-11-17T12:07:31.437Z,55.36
2022-11-17T12:08:33.392Z,48.18
2022-11-17T12:09:35.393Z,50.64
2022-11-17T12:10:37.184Z,45.09
2022-11-17T12:11:38.975Z,47.41
2022-11-17T12:12:40.827Z,43.28
2022-11-17T12:13:47.377Z,38.11
2022-11-17T12:14:46.336Z,40.61
2022-11-17T12:15:48.159Z,32.74
2022-11-17T12:16:49.983Z,33.38
2022-11-17T12:17:51.841Z,33.21
2022-11-17T12:18:53.642Z,34.65
2022-11-17T12:19:55.448Z,35.97
2022-11-17T12:20:57.348Z,47.01
2022-11-17T12:21:59.130Z,33.94
2022-11-17T12:23:00.914Z,34.59
2022-11-17T12:24:02.724Z,33.38
2022-11-17T12:25:04.456Z,32.10
2022-11-17T12:26:06.549Z,31.32
2022-11-17T12:27:08.775Z,35.21
2022-11-17T12:28:10.502Z,45.93
2022-11-17T12:29:12.260Z,69.51
2022-11-17T12:30:14.303Z,86.08
2022-11-17T12:31:16.089Z,76.11
2022-11-17T12:32:17.893Z,61.83
2022-11-17T12:33:19.677Z,49.09
2022-11-17T12:34:21.341Z,36.70
2022-11-17T12:35:23.067Z,33.60
2022-11-17T12:36:30.149Z,30.86
2022-11-17T12:37:28.530Z,31.61
2022-11-17T12:38:30.324Z,33.89
2022-11-17T12:39:32.191Z,34.91
2022-11-17T12:40:34.006Z,37.99
2022-11-17T12:41:35.692Z,40.70
2022-11-17T12:42:37.369Z,42.34
2022-11-17T12:43:39.052Z,40.41
2022-11-17T12:44:40.828Z,38.50
2022-11-17T12:45:42.559Z,39.88
2022-11-17T12:46:44.262Z,39.94
2022-11-17T12:47:54.764Z,38.59
2022-11-17T12:48:49.683Z,38.21
2022-11-17T12:49:51.433Z,42.25
2022-11-17T12:50:53.347Z,51.67
2022-11-17T12:51:55.130Z,50.86
2022-11-17T12:52:56.819Z,46.11
2022-11-17T12:53:58.994Z,59.59
2022-11-17T12:55:00.792Z,57.43
2022-11-17T12:56:03.670Z,62.14
2022-11-17T12:57:05.757Z,61.49
2022-11-17T12:58:10.496Z,62.15
2022-11-17T12:59:11.099Z,57.91
2022-11-17T13:00:12.980Z,69.09
2022-11-17T13:01:14.835Z,65.31
2022-11-17T13:02:16.596Z,73.63
2022-11-17T13:03:18.383Z,69.83
2022-11-17T13:04:21.094Z,69.79
2022-11-17T13:05:22.898Z,64.03
2022-11-17T13:06:40.012Z,54.91
2022-11-17T13:07:29.515Z,56.31
2022-11-17T13:08:31.341Z,65.88
2022-11-17T13:09:33.084Z,53.77
2022-11-17T13:10:35.018Z,48.69
2022-11-17T13:11:38.545Z,47.33
2022-11-17T13:12:40.338Z,41.97
2022-11-17T13:13:45.787Z,34.01
2022-11-17T13:14:45.632Z,40.64
2022-11-17T13:15:47.314Z,41.25
2022-11-17T13:16:50.847Z,38.55
2022-11-17T13:17:53.128Z,41.12
2022-11-17T13:18:54.809Z,38.54